Time;durP1;ratioP1;P1;durP2;ratioP2;P2;SDS_P1;SDS_P2;PMS_P1;PMS_P2;Temp;Humidity;BMP_temperature;BMP_pressure;BME280_temperature;BME280_humidity;BME280_pressure;Samples;Min_cycle;Max_cycle;Signal;HPM_P1;HPM_P2
2021/12/11 00:02:10;;;;;;;10.65;5.22;;;22.70;70.70;;;;;;6194423;28;88868;-58
2021/12/11 00:05:16;;;;;;;7.22;5.40;;;22.70;70.90;;;;;;6196139;28;89889;-58
2021/12/11 00:08:22;;;;;;;6.95;5.10;;;22.60;70.90;;;;;;6200003;28;89173;-58
2021/12/11 00:11:30;;;;;;;6.90;4.63;;;22.60;71.10;;;;;;6188864;28;90094;-58
2021/12/11 00:14:38;;;;;;;5.80;4.70;;;22.60;71.10;;;;;;6202512;28;90305;-58
2021/12/11 00:17:40;;;;;;;6.90;4.75;;;22.50;71.10;;;;;;6199484;28;89176;-58
2021/12/11 00:20:50;;;;;;;9.32;5.05;;;22.50;71.30;;;;;;6199634;28;89489;-58
2021/12/11 00:23:58;;;;;;;6.63;4.80;;;22.50;71.30;;;;;;6205754;28;90682;-58
2021/12/11 00:27:05;;;;;;;5.50;4.43;;;22.50;71.30;;;;;;6201332;28;89797;-58
2021/12/11 00:30:11;;;;;;;6.53;4.38;;;22.50;71.30;;;;;;6203203;28;89111;-58
2021/12/11 00:33:16;;;;;;;4.72;4.15;;;22.50;71.40;;;;;;6197298;28;88223;-58
2021/12/11 00:36:20;;;;;;;5.72;4.32;;;22.50;71.40;;;;;;6205864;28;89153;-58
2021/12/11 00:39:23;;;;;;;7.13;4.70;;;22.50;71.50;;;;;;6205057;28;89060;-58
2021/12/11 00:42:33;;;;;;;6.82;4.35;;;22.50;71.50;;;;;;6192559;28;90107;-58
2021/12/11 00:45:38;;;;;;;6.57;4.57;;;22.50;71.50;;;;;;6203882;28;88857;-58
2021/12/11 00:48:40;;;;;;;5.85;4.60;;;22.50;71.50;;;;;;6193379;28;87959;-58
2021/12/11 00:51:48;;;;;;;5.20;4.25;;;22.50;71.50;;;;;;6203195;28;89032;-58
2021/12/11 00:54:51;;;;;;;6.20;4.50;;;22.40;71.50;;;;;;6203423;28;89066;-58
2021/12/11 00:58:05;;;;;;;7.03;4.78;;;22.40;71.50;;;;;;6204729;28;89045;-58
2021/12/11 01:01:12;;;;;;;5.30;4.05;;;22.40;71.60;;;;;;6201474;28;89148;-58
2021/12/11 01:04:16;;;;;;;4.68;3.90;;;22.40;71.60;;;;;;6201897;28;88404;-58
2021/12/11 01:07:22;;;;;;;4.88;3.80;;;22.40;71.60;;;;;;6204106;28;89135;-58
2021/12/11 01:10:28;;;;;;;4.70;3.90;;;22.30;71.60;;;;;;6203671;28;89351;-58
2021/12/11 01:13:38;;;;;;;6.32;4.28;;;22.30;71.60;;;;;;6200591;28;90008;-58
2021/12/11 01:16:41;;;;;;;6.18;4.32;;;22.30;71.60;;;;;;6207954;28;88976;-58
2021/12/11 01:19:45;;;;;;;5.28;3.97;;;22.20;71.60;;;;;;6193375;28;89154;-58
2021/12/11 01:22:48;;;;;;;4.88;3.97;;;22.30;71.70;;;;;;6208647;28;89145;-58
2021/12/11 01:25:50;;;;;;;5.43;4.40;;;22.30;71.70;;;;;;6207357;28;89413;-58
2021/12/11 01:28:54;;;;;;;4.85;4.30;;;22.20;71.60;;;;;;6206204;28;89059;-58
2021/12/11 01:31:57;;;;;;;5.13;4.28;;;22.20;71.70;;;;;;6206651;28;89076;-58
2021/12/11 01:35:01;;;;;;;4.85;4.45;;;22.20;71.70;;;;;;6207941;28;88390;-58
2021/12/11 01:38:07;;;;;;;5.18;4.68;;;22.20;71.80;;;;;;6204670;28;89084;-58
2021/12/11 01:41:12;;;;;;;5.43;4.88;;;22.10;71.80;;;;;;6204469;28;89655;-58
2021/12/11 01:44:19;;;;;;;5.32;4.60;;;22.20;71.80;;;;;;6209240;28;89377;-60
2021/12/11 01:47:26;;;;;;;5.53;4.78;;;22.10;71.70;;;;;;6202526;28;89020;-61
2021/12/11 01:50:32;;;;;;;5.85;4.90;;;22.10;71.80;;;;;;6207061;28;88228;-60
2021/12/11 01:53:37;;;;;;;6.38;4.72;;;22.10;71.80;;;;;;6202992;28;89192;-60
2021/12/11 01:56:43;;;;;;;5.55;4.78;;;22.10;71.80;;;;;;6200192;28;89080;-61
2021/12/11 01:59:53;;;;;;;5.78;5.18;;;22.10;71.80;;;;;;6198149;28;89431;-61
2021/12/11 02:03:00;;;;;;;6.05;5.15;;;22.00;71.70;;;;;;6203742;28;88956;-60
2021/12/11 02:06:02;;;;;;;7.63;5.68;;;22.00;71.70;;;;;;6205401;28;88380;-61
2021/12/11 02:09:13;;;;;;;6.13;5.53;;;22.00;71.80;;;;;;6205230;28;89073;-60
2021/12/11 02:12:20;;;;;;;6.05;5.50;;;22.00;71.70;;;;;;6198376;28;87913;-60
2021/12/11 02:15:30;;;;;;;6.25;5.65;;;22.00;71.70;;;;;;6206704;28;90047;-61
2021/12/11 02:18:42;;;;;;;6.30;5.70;;;22.00;71.70;;;;;;6200188;28;88912;-60
2021/12/11 02:21:51;;;;;;;6.40;5.80;;;22.00;71.60;;;;;;6196467;28;89102;-60
2021/12/11 02:24:56;;;;;;;6.60;5.90;;;22.00;71.80;;;;;;6204899;28;89135;-60
2021/12/11 02:28:03;;;;;;;6.18;5.40;;;22.00;71.70;;;;;;6206700;28;89091;-61
2021/12/11 02:31:19;;;;;;;6.90;6.22;;;22.00;71.70;;;;;;6205547;28;89096;-60
2021/12/11 02:34:25;;;;;;;8.25;6.43;;;22.00;71.70;;;;;;6194268;28;89384;-61
2021/12/11 02:37:37;;;;;;;6.90;6.15;;;21.90;71.70;;;;;;6199310;28;88282;-60
2021/12/11 02:40:44;;;;;;;6.85;6.25;;;21.90;71.80;;;;;;6199563;28;91399;-60
2021/12/11 02:43:51;;;;;;;6.95;6.25;;;21.90;71.80;;;;;;6205256;28;89337;-60
2021/12/11 02:46:58;;;;;;;7.20;6.50;;;21.90;71.80;;;;;;6200787;28;90043;-61
2021/12/11 02:50:06;;;;;;;7.20;6.10;;;21.90;71.90;;;;;;6206972;28;87716;-61
2021/12/11 02:53:14;;;;;;;6.93;6.22;;;21.90;71.90;;;;;;6194363;28;89030;-60
2021/12/11 02:56:20;;;;;;;7.22;6.53;;;21.80;71.90;;;;;;6197981;28;88816;-60
2021/12/11 02:59:26;;;;;;;7.15;6.45;;;21.80;71.90;;;;;;6194344;28;89684;-61
2021/12/11 03:02:30;;;;;;;7.30;6.60;;;21.80;71.90;;;;;;6205415;28;90924;-61
2021/12/11 03:05:39;;;;;;;7.55;6.78;;;21.80;71.90;;;;;;6205234;28;89105;-61
2021/12/11 03:08:43;;;;;;;7.50;6.78;;;21.80;71.90;;;;;;6206564;28;88431;-61
2021/12/11 03:11:46;;;;;;;7.68;6.70;;;21.80;72.00;;;;;;6202462;28;89409;-61
2021/12/11 03:14:48;;;;;;;7.18;6.47;;;21.80;72.00;;;;;;6200577;28;89044;-61
2021/12/11 03:17:51;;;;;;;7.50;6.80;;;21.80;72.00;;;;;;6198134;28;89967;-61
2021/12/11 03:20:54;;;;;;;7.03;6.30;;;21.70;72.00;;;;;;6200048;28;89398;-61
2021/12/11 03:23:57;;;;;;;7.03;6.32;;;21.80;72.00;;;;;;6201871;28;89080;-61
2021/12/11 03:27:00;;;;;;;7.28;6.57;;;21.70;72.00;;;;;;6199402;28;89239;-60
2021/12/11 03:30:04;;;;;;;7.35;6.63;;;21.80;72.00;;;;;;6204215;28;89106;-61
2021/12/11 03:33:10;;;;;;;7.15;6.45;;;21.80;72.00;;;;;;6201496;28;89074;-61
2021/12/11 03:36:14;;;;;;;7.10;6.40;;;21.70;71.80;;;;;;6207030;28;89133;-60
2021/12/11 03:39:21;;;;;;;7.03;6.32;;;21.80;71.90;;;;;;6201643;28;88273;-61
2021/12/11 03:42:28;;;;;;;7.47;6.72;;;21.70;71.80;;;;;;6201857;28;89467;-61
2021/12/11 03:45:33;;;;;;;7.05;6.35;;;21.70;71.90;;;;;;6202432;28;89427;-61
2021/12/11 03:48:40;;;;;;;7.18;6.47;;;21.70;71.80;;;;;;6203955;28;90518;-60
2021/12/11 03:51:45;;;;;;;6.43;5.82;;;21.70;71.80;;;;;;6203175;28;88292;-61
2021/12/11 03:54:53;;;;;;;6.90;6.20;;;21.70;71.80;;;;;;6203563;28;89570;-61
2021/12/11 03:57:59;;;;;;;6.90;6.20;;;21.70;71.80;;;;;;6193870;28;88993;-60
2021/12/11 04:01:07;;;;;;;6.65;6.03;;;21.70;71.80;;;;;;6203494;28;88996;-61
2021/12/11 04:04:15;;;;;;;6.90;6.20;;;21.70;71.80;;;;;;6195365;28;89063;-60
2021/12/11 04:07:20;;;;;;;6.55;5.95;;;21.70;71.70;;;;;;6202172;28;89010;-61
2021/12/11 04:10:27;;;;;;;6.78;6.07;;;21.70;71.80;;;;;;6205224;28;88325;-60
2021/12/11 04:13:29;;;;;;;6.40;5.80;;;21.60;71.60;;;;;;6193542;28;89083;-61
2021/12/11 04:16:31;;;;;;;6.13;5.53;;;21.70;71.80;;;;;;6203212;28;89353;-60
2021/12/11 04:19:34;;;;;;;6.82;5.85;;;21.60;71.70;;;;;;6192799;28;90425;-60
2021/12/11 04:22:36;;;;;;;6.55;5.85;;;21.70;71.80;;;;;;6203682;28;88002;-60
2021/12/11 04:25:42;;;;;;;6.18;5.57;;;21.60;71.80;;;;;;6206547;28;89141;-60
2021/12/11 04:28:46;;;;;;;6.05;5.45;;;21.70;71.80;;;;;;6200828;28;89424;-60
2021/12/11 04:31:49;;;;;;;6.15;5.55;;;21.70;71.80;;;;;;6201145;28;90164;-60
2021/12/11 04:34:51;;;;;;;5.90;5.30;;;21.70;71.70;;;;;;6203259;28;89424;-61
2021/12/11 04:37:54;;;;;;;6.43;5.70;;;21.70;71.70;;;;;;6203286;28;89130;-60
2021/12/11 04:40:59;;;;;;;5.72;5.22;;;21.70;71.70;;;;;;6204178;28;88343;-61
2021/12/11 04:44:07;;;;;;;6.05;5.15;;;21.70;71.60;;;;;;6203005;28;89223;-61
2021/12/11 04:47:14;;;;;;;5.80;5.25;;;21.70;71.60;;;;;;6202866;28;88924;-60
2021/12/11 04:50:27;;;;;;;5.68;5.05;;;21.80;71.60;;;;;;6207542;28;89245;-61
2021/12/11 04:53:48;;;;;;;5.45;4.93;;;21.80;71.60;;;;;;6206546;28;89195;-61
2021/12/11 05:00:37;;;;;;;5.32;4.82;;;21.80;71.50;;;;;;6156071;28;88006;-61
2021/12/11 05:04:08;;;;;;;5.30;4.80;;;21.80;71.30;;;;;;6193589;28;89132;-61
2021/12/11 05:07:23;;;;;;;5.25;4.75;;;21.90;71.30;;;;;;6204444;28;89488;-61
2021/12/11 05:10:35;;;;;;;5.38;4.88;;;21.90;71.20;;;;;;6204809;28;89058;-60
2021/12/11 05:13:39;;;;;;;5.10;4.68;;;21.90;71.10;;;;;;6212356;28;88600;-60
2021/12/11 05:16:42;;;;;;;4.82;4.35;;;22.00;72.10;;;;;;6206339;28;89405;-61
2021/12/11 05:19:45;;;;;;;4.60;4.20;;;22.00;71.10;;;;;;6205917;28;89077;-61
2021/12/11 05:22:48;;;;;;;4.93;4.43;;;22.00;71.10;;;;;;6200588;28;89689;-60
2021/12/11 05:25:50;;;;;;;4.70;4.20;;;22.00;71.10;;;;;;6208217;28;89046;-60
2021/12/11 05:28:54;;;;;;;4.88;4.47;;;22.00;71.10;;;;;;6196787;28;89104;-60
2021/12/11 05:31:56;;;;;;;4.90;4.40;;;22.00;71.10;;;;;;6206108;28;89115;-61
2021/12/11 05:34:58;;;;;;;4.47;4.07;;;22.00;71.10;;;;;;6185325;28;89047;-60
2021/12/11 05:38:01;;;;;;;4.45;4.05;;;22.00;72.00;;;;;;6204115;28;88866;-61
2021/12/11 05:41:06;;;;;;;4.60;4.20;;;21.90;71.10;;;;;;6205460;28;89010;-61
2021/12/11 05:44:11;;;;;;;4.47;4.07;;;22.00;71.30;;;;;;6200941;28;88635;-61
2021/12/11 05:47:13;;;;;;;4.63;4.10;;;22.00;71.30;;;;;;6207524;28;89062;-60
2021/12/11 05:50:25;;;;;;;4.50;4.10;;;21.90;71.20;;;;;;6204823;28;89289;-60
2021/12/11 05:53:28;;;;;;;4.55;3.75;;;21.90;71.30;;;;;;6203686;28;90114;-60
2021/12/11 05:56:34;;;;;;;4.40;4.00;;;21.90;71.30;;;;;;6206905;28;89613;-61
2021/12/11 05:59:38;;;;;;;4.53;4.13;;;21.90;71.40;;;;;;6190583;28;89036;-61
2021/12/11 06:02:41;;;;;;;4.50;3.58;;;21.80;71.40;;;;;;6206876;28;89153;-61
2021/12/11 06:05:44;;;;;;;4.32;3.92;;;21.80;71.50;;;;;;6212425;28;89071;-61
2021/12/11 06:08:46;;;;;;;4.90;4.10;;;21.80;71.50;;;;;;6205403;28;88833;-61
2021/12/11 06:11:52;;;;;;;4.00;3.60;;;21.80;71.50;;;;;;6204826;28;89682;-61
2021/12/11 06:14:56;;;;;;;4.45;3.85;;;21.80;71.60;;;;;;6199919;28;88303;-60
2021/12/11 06:17:59;;;;;;;3.85;3.45;;;21.80;71.60;;;;;;6207960;28;89635;-61
2021/12/11 06:21:01;;;;;;;3.60;3.30;;;21.80;72.50;;;;;;6204719;28;89383;-61
2021/12/11 06:24:04;;;;;;;3.70;3.40;;;21.80;71.60;;;;;;6203211;28;90039;-60
2021/12/11 06:27:06;;;;;;;4.22;3.80;;;21.80;71.60;;;;;;6207128;28;89132;-60
2021/12/11 06:30:13;;;;;;;4.10;3.72;;;21.80;71.60;;;;;;6200372;28;89326;-61
2021/12/11 06:33:15;;;;;;;3.50;3.20;;;21.80;71.60;;;;;;6206098;28;89374;-61
2021/12/11 06:36:20;;;;;;;4.05;3.65;;;21.80;71.60;;;;;;6206538;28;89164;-60
2021/12/11 06:39:24;;;;;;;3.55;3.25;;;21.80;71.60;;;;;;6202826;28;89379;-60
2021/12/11 06:42:27;;;;;;;4.70;3.30;;;21.80;71.50;;;;;;6206436;28;90158;-60
2021/12/11 06:45:31;;;;;;;3.60;3.30;;;21.80;71.50;;;;;;6205008;28;88702;-61
2021/12/11 06:48:33;;;;;;;3.33;3.03;;;21.80;71.50;;;;;;6208005;28;89053;-61
2021/12/11 06:51:35;;;;;;;3.45;3.15;;;21.80;71.50;;;;;;6205692;28;89094;-60
2021/12/11 06:54:37;;;;;;;3.67;3.38;;;21.80;71.50;;;;;;6202973;28;89071;-61
2021/12/11 06:57:40;;;;;;;3.47;3.17;;;21.80;71.50;;;;;;6207245;28;89108;-61
2021/12/11 07:00:43;;;;;;;3.45;3.15;;;21.90;71.40;;;;;;6205519;28;89179;-61
2021/12/11 07:03:46;;;;;;;3.58;3.22;;;21.90;71.40;;;;;;6212209;28;89000;-61
2021/12/11 07:06:51;;;;;;;3.20;2.90;;;21.90;71.30;;;;;;6205658;28;89066;-61
2021/12/11 07:09:55;;;;;;;3.08;2.78;;;21.90;71.30;;;;;;6199863;28;88144;-60
2021/12/11 07:12:57;;;;;;;3.17;2.92;;;21.90;71.30;;;;;;6206314;28;87988;-60
2021/12/11 07:16:01;;;;;;;3.28;2.97;;;22.00;71.30;;;;;;6201642;28;90260;-61
2021/12/11 07:19:07;;;;;;;3.20;2.90;;;22.00;71.30;;;;;;6198779;28;87993;-61
2021/12/11 07:22:09;;;;;;;3.22;2.92;;;22.00;71.30;;;;;;6205080;28;89482;-61
2021/12/11 07:25:18;;;;;;;3.15;2.55;;;22.00;71.20;;;;;;6205928;28;90118;-61
2021/12/11 07:28:21;;;;;;;3.10;2.80;;;22.00;71.20;;;;;;6201630;28;89001;-61
2021/12/11 07:31:25;;;;;;;3.03;2.72;;;22.00;71.10;;;;;;6204318;28;87924;-61
2021/12/11 07:34:28;;;;;;;2.78;2.58;;;22.00;71.20;;;;;;6201331;28;89367;-61
2021/12/11 07:37:30;;;;;;;2.70;2.50;;;22.00;71.10;;;;;;6200944;28;89110;-61
2021/12/11 07:40:36;;;;;;;2.83;2.45;;;22.10;71.20;;;;;;6202566;28;89424;-61
2021/12/11 07:43:40;;;;;;;2.90;2.70;;;22.10;71.10;;;;;;6206627;28;88758;-60
2021/12/11 07:46:43;;;;;;;2.88;2.60;;;22.10;71.10;;;;;;6195094;28;88345;-61
2021/12/11 07:49:45;;;;;;;3.20;2.85;;;22.10;71.10;;;;;;6182662;28;89419;-60
2021/12/11 07:52:47;;;;;;;3.72;2.60;;;22.20;71.40;;;;;;6207249;28;89545;-60
2021/12/11 07:55:50;;;;;;;3.80;2.55;;;22.10;71.50;;;;;;6202141;28;90146;-61
2021/12/11 07:58:57;;;;;;;3.55;2.38;;;22.20;71.50;;;;;;6205300;28;89163;-61
2021/12/11 08:02:01;;;;;;;2.72;2.53;;;22.20;71.50;;;;;;6203652;28;89276;-61
2021/12/11 08:05:03;;;;;;;2.63;2.42;;;22.20;71.60;;;;;;6189324;28;89042;-61
2021/12/11 08:08:06;;;;;;;2.55;2.35;;;22.30;71.70;;;;;;6201465;28;89005;-61
2021/12/11 08:11:13;;;;;;;2.47;2.25;;;22.30;71.70;;;;;;6200811;28;89218;-61
2021/12/11 08:14:15;;;;;;;2.63;2.30;;;22.30;71.70;;;;;;6203002;28;88937;-61
2021/12/11 08:17:19;;;;;;;2.60;2.40;;;22.40;72.10;;;;;;6199895;28;88307;-61
2021/12/11 08:20:23;;;;;;;3.63;2.50;;;22.40;72.10;;;;;;6204542;28;88931;-61
2021/12/11 08:23:25;;;;;;;2.92;2.20;;;22.40;72.10;;;;;;6188317;28;89420;-61
2021/12/11 08:26:27;;;;;;;2.42;2.22;;;22.40;72.30;;;;;;6187194;28;89977;-61
2021/12/11 08:29:30;;;;;;;2.78;2.22;;;22.40;72.30;;;;;;6189541;28;89076;-61
2021/12/11 08:32:35;;;;;;;2.85;2.55;;;22.50;72.30;;;;;;6190560;28;89076;-61
2021/12/11 08:35:38;;;;;;;2.30;2.10;;;22.50;72.30;;;;;;6192413;28;89436;-61
2021/12/11 08:38:42;;;;;;;2.47;2.28;;;22.50;72.20;;;;;;6187385;28;89038;-60
2021/12/11 08:41:46;;;;;;;2.40;2.20;;;22.50;72.00;;;;;;6193988;28;88908;-60
2021/12/11 08:44:53;;;;;;;2.40;2.20;;;22.50;71.80;;;;;;6202854;28;89344;-60
2021/12/11 08:47:59;;;;;;;3.35;2.15;;;22.50;71.80;;;;;;6204516;28;88251;-60
2021/12/11 08:51:05;;;;;;;2.33;2.13;;;22.50;71.70;;;;;;6199415;28;89427;-61
2021/12/11 08:54:09;;;;;;;3.28;2.40;;;22.50;71.60;;;;;;6201171;28;89761;-60
2021/12/11 08:57:31;;;;;;;4.20;2.40;;;22.50;72.60;;;;;;6196523;28;89985;-60
2021/12/11 09:00:38;;;;;;;2.80;2.10;;;22.60;71.80;;;;;;6185776;28;89092;-60
2021/12/11 09:03:46;;;;;;;3.25;2.00;;;22.60;71.80;;;;;;6200648;28;89557;-60
2021/12/11 09:06:52;;;;;;;4.43;2.00;;;22.50;71.60;;;;;;6200062;28;87996;-60
2021/12/11 09:09:58;;;;;;;3.95;1.98;;;22.60;71.70;;;;;;6198934;28;89036;-60
2021/12/11 09:13:07;;;;;;;2.80;2.15;;;22.50;71.60;;;;;;6198649;28;89301;-61
2021/12/11 09:16:15;;;;;;;3.42;1.98;;;22.50;71.60;;;;;;6201626;28;89144;-60
2021/12/11 09:19:22;;;;;;;2.35;2.13;;;22.60;71.60;;;;;;6195460;28;87217;-61
2021/12/11 09:22:29;;;;;;;2.40;2.10;;;22.60;71.60;;;;;;6193384;28;89180;-60
2021/12/11 09:25:35;;;;;;;3.20;1.90;;;22.50;71.50;;;;;;6188689;28;90495;-61
2021/12/11 09:28:43;;;;;;;4.70;2.35;;;22.60;71.50;;;;;;6203284;28;89978;-60
2021/12/11 09:31:56;;;;;;;2.58;2.17;;;22.50;71.40;;;;;;6202413;28;89020;-61
2021/12/11 09:35:06;;;;;;;2.63;1.90;;;22.60;71.50;;;;;;6189396;28;89062;-60
2021/12/11 09:38:15;;;;;;;2.28;1.70;;;22.60;71.40;;;;;;6200278;28;89340;-60
2021/12/11 09:41:20;;;;;;;2.00;1.77;;;22.60;71.30;;;;;;6207392;28;89299;-60
2021/12/11 09:44:27;;;;;;;2.38;1.80;;;22.60;71.30;;;;;;6205297;28;89488;-60
2021/12/11 09:47:34;;;;;;;2.22;1.88;;;22.60;71.20;;;;;;6200749;28;92173;-60
2021/12/11 09:50:46;;;;;;;3.33;2.00;;;22.60;71.20;;;;;;6197588;28;88242;-61
2021/12/11 09:53:53;;;;;;;3.60;1.90;;;22.60;71.20;;;;;;6201204;28;89222;-60
2021/12/11 09:56:58;;;;;;;2.20;1.98;;;22.60;71.20;;;;;;6192192;28;89287;-61
2021/12/11 10:00:08;;;;;;;2.88;2.05;;;22.60;71.10;;;;;;6196101;28;90331;-60
2021/12/11 10:03:14;;;;;;;4.72;2.20;;;22.60;71.00;;;;;;6198443;28;89139;-61
2021/12/11 10:06:38;;;;;;;3.05;2.03;;;22.70;71.10;;;;;;6205197;28;89170;-61
2021/12/11 10:09:45;;;;;;;2.15;1.85;;;22.70;71.10;;;;;;6209750;28;89184;-61
2021/12/11 10:12:50;;;;;;;3.20;1.80;;;22.70;71.00;;;;;;6196011;28;88999;-61
2021/12/11 10:15:53;;;;;;;3.25;2.00;;;22.70;71.00;;;;;;6200914;28;89047;-60
2021/12/11 10:18:56;;;;;;;3.17;1.70;;;22.70;71.00;;;;;;6207200;28;88075;-61
2021/12/11 10:22:06;;;;;;;2.45;1.63;;;22.70;71.00;;;;;;6207071;28;88709;-61
2021/12/11 10:25:13;;;;;;;3.58;1.90;;;22.70;71.00;;;;;;6207584;28;89087;-61
2021/12/11 10:28:19;;;;;;;2.65;1.70;;;22.70;71.00;;;;;;6185062;28;89099;-60
2021/12/11 10:31:28;;;;;;;2.80;1.58;;;22.70;71.00;;;;;;6190942;28;90031;-60
2021/12/11 10:34:32;;;;;;;2.92;1.80;;;22.70;71.00;;;;;;6189158;28;89466;-60
2021/12/11 10:37:36;;;;;;;3.72;1.60;;;22.70;70.90;;;;;;6193449;28;90448;-60
2021/12/11 10:40:41;;;;;;;3.03;1.92;;;22.70;70.90;;;;;;6197177;28;89246;-61
2021/12/11 10:43:47;;;;;;;3.08;2.10;;;22.70;70.90;;;;;;6196767;28;89389;-61
2021/12/11 10:46:54;;;;;;;2.45;1.60;;;22.80;71.10;;;;;;6195319;28;87972;-61
2021/12/11 10:49:56;;;;;;;2.33;1.70;;;22.80;71.00;;;;;;6193855;28;89403;-60
2021/12/11 10:52:58;;;;;;;2.72;1.88;;;22.80;71.00;;;;;;6190229;28;87205;-61
2021/12/11 10:56:03;;;;;;;3.50;1.70;;;22.80;71.00;;;;;;6196542;28;89065;-61
2021/12/11 10:59:08;;;;;;;2.00;1.73;;;22.80;71.00;;;;;;6204174;28;88313;-60
2021/12/11 11:02:15;;;;;;;2.47;1.58;;;22.80;71.00;;;;;;6203108;28;90156;-61
2021/12/11 11:05:20;;;;;;;2.80;1.60;;;22.80;71.00;;;;;;6199040;28;89117;-60
2021/12/11 11:08:23;;;;;;;1.77;1.67;;;22.80;71.00;;;;;;6199979;28;88760;-60
2021/12/11 11:11:31;;;;;;;2.00;1.60;;;22.80;71.00;;;;;;6196130;28;89108;-61
2021/12/11 11:14:33;;;;;;;2.40;1.42;;;22.80;71.00;;;;;;6200481;28;88255;-60
2021/12/11 11:17:36;;;;;;;2.95;1.60;;;22.80;71.00;;;;;;6197438;28;89097;-61
2021/12/11 11:20:45;;;;;;;2.50;1.40;;;22.80;71.00;;;;;;6198576;28;89321;-60
2021/12/11 11:23:48;;;;;;;2.00;1.60;;;22.90;71.00;;;;;;6190353;28;87227;-61
2021/12/11 11:26:51;;;;;;;2.10;1.45;;;22.80;71.00;;;;;;6201782;28;89281;-61
2021/12/11 11:29:53;;;;;;;1.63;1.52;;;22.90;71.00;;;;;;6205174;28;90838;-60
2021/12/11 11:32:58;;;;;;;2.10;1.50;;;22.90;71.00;;;;;;6196129;28;90135;-60
2021/12/11 11:36:02;;;;;;;1.95;1.60;;;22.90;71.00;;;;;;6199269;28;89156;-61
2021/12/11 11:39:07;;;;;;;1.90;1.60;;;22.90;71.00;;;;;;6185868;28;89422;-60
2021/12/11 11:42:12;;;;;;;1.85;1.45;;;22.90;71.00;;;;;;6197949;28;89351;-60
2021/12/11 11:45:14;;;;;;;2.45;1.35;;;22.90;70.90;;;;;;6197301;28;89447;-61
2021/12/11 11:48:18;;;;;;;1.77;1.50;;;22.90;71.00;;;;;;6196955;28;89248;-60
2021/12/11 11:51:24;;;;;;;2.30;1.98;;;22.90;70.90;;;;;;6189499;28;88993;-61
2021/12/11 11:54:28;;;;;;;1.80;1.48;;;22.90;71.00;;;;;;6193978;28;88360;-61
2021/12/11 11:57:33;;;;;;;2.38;1.70;;;22.90;71.00;;;;;;6196984;28;89155;-60
2021/12/11 12:00:41;;;;;;;2.30;1.45;;;22.90;71.00;;;;;;6189399;28;87961;-60
2021/12/11 12:03:45;;;;;;;2.08;1.48;;;22.90;71.00;;;;;;6189014;28;90089;-61
2021/12/11 12:06:54;;;;;;;2.22;1.60;;;23.00;71.10;;;;;;6189581;28;87981;-61
2021/12/11 12:09:58;;;;;;;1.50;1.40;;;22.90;71.60;;;;;;6185446;28;88002;-60
2021/12/11 12:13:03;;;;;;;1.83;1.50;;;22.90;71.80;;;;;;6204093;28;89118;-61
2021/12/11 12:16:08;;;;;;;3.45;1.30;;;23.00;72.20;;;;;;6189668;28;89050;-61
2021/12/11 12:19:12;;;;;;;2.63;1.58;;;22.90;72.30;;;;;;6196300;28;89051;-61
2021/12/11 12:22:17;;;;;;;2.80;1.58;;;23.00;72.60;;;;;;6192213;28;89073;-61
2021/12/11 12:25:19;;;;;;;3.42;1.65;;;23.00;72.80;;;;;;6186906;28;88402;-60
2021/12/11 12:28:21;;;;;;;2.90;1.50;;;23.00;73.00;;;;;;6197103;28;89461;-60
2021/12/11 12:31:27;;;;;;;2.67;1.52;;;23.00;73.30;;;;;;6197464;28;89149;-60
2021/12/11 12:34:31;;;;;;;2.08;1.88;;;23.00;69.40;;;;;;6202763;28;90194;-60
2021/12/11 12:37:33;;;;;;;4.63;1.60;;;22.90;61.60;;;;;;6197589;28;87922;-61
2021/12/11 12:40:39;;;;;;;1.92;1.70;;;22.70;60.30;;;;;;6211422;28;89115;-61
2021/12/11 12:44:16;;;;;;;1.50;1.40;;;22.60;58.90;;;;;;6199036;28;89117;-61
2021/12/11 12:47:21;;;;;;;1.65;1.50;;;22.60;60.00;;;;;;6183099;28;88095;-61
2021/12/11 12:50:28;;;;;;;1.33;1.23;;;22.60;61.30;;;;;;6194222;28;89028;-61
2021/12/11 12:53:34;;;;;;;1.42;1.13;;;22.60;62.30;;;;;;6202204;28;89153;-61
2021/12/11 12:56:39;;;;;;;1.42;1.10;;;22.60;63.20;;;;;;6200134;28;88118;-61
2021/12/11 12:59:46;;;;;;;1.20;1.10;;;22.60;64.70;;;;;;6205326;28;89413;-61
2021/12/11 13:02:51;;;;;;;1.55;1.00;;;22.60;64.30;;;;;;6203697;28;89712;-61
2021/12/11 13:05:57;;;;;;;2.15;1.30;;;22.60;64.80;;;;;;6206785;28;90258;-61
2021/12/11 13:09:08;;;;;;;1.35;1.25;;;22.70;65.30;;;;;;6193763;28;89458;-61
2021/12/11 13:12:16;;;;;;;1.20;1.05;;;22.70;65.70;;;;;;6207923;28;89174;-61
2021/12/11 13:15:23;;;;;;;2.10;1.10;;;22.70;66.00;;;;;;6202854;28;89014;-61
2021/12/11 13:18:29;;;;;;;1.13;1.02;;;22.60;66.20;;;;;;6197344;28;89216;-61
2021/12/11 13:21:37;;;;;;;1.17;1.00;;;22.60;66.60;;;;;;6206001;28;89140;-61
2021/12/11 13:24:43;;;;;;;1.27;1.17;;;22.60;66.80;;;;;;6204742;28;90646;-61
2021/12/11 13:27:45;;;;;;;1.42;1.20;;;22.60;67.10;;;;;;6204076;28;88344;-61
2021/12/11 13:30:50;;;;;;;1.42;1.20;;;22.70;67.30;;;;;;6202118;28;89054;-61
2021/12/11 13:33:52;;;;;;;1.67;1.50;;;22.70;67.60;;;;;;6210111;28;89102;-61
2021/12/11 13:36:57;;;;;;;1.73;1.40;;;22.70;67.70;;;;;;6209944;28;89998;-62
2021/12/11 13:40:02;;;;;;;1.42;1.30;;;22.60;67.80;;;;;;6188473;28;89037;-61
2021/12/11 13:43:07;;;;;;;1.88;1.40;;;22.70;68.00;;;;;;6198765;28;89817;-61
2021/12/11 13:46:10;;;;;;;1.40;1.30;;;22.60;68.10;;;;;;6207385;28;89462;-61
2021/12/11 13:49:12;;;;;;;3.20;1.70;;;22.60;68.20;;;;;;6203761;28;89091;-61
2021/12/11 13:52:17;;;;;;;2.10;1.48;;;22.70;68.40;;;;;;6206403;28;89014;-61
2021/12/11 13:55:20;;;;;;;3.08;1.75;;;22.70;68.50;;;;;;6200875;28;90647;-61
2021/12/11 13:58:22;;;;;;;2.83;1.70;;;22.60;68.60;;;;;;6204722;28;88298;-61
2021/12/11 14:01:28;;;;;;;2.78;2.22;;;22.70;68.80;;;;;;6209789;28;89038;-61
2021/12/11 14:04:32;;;;;;;3.10;2.10;;;22.60;68.70;;;;;;6205194;28;87663;-61
2021/12/11 14:07:38;;;;;;;4.07;2.08;;;22.70;68.80;;;;;;6198715;28;90141;-61
2021/12/11 14:10:40;;;;;;;3.75;2.03;;;22.60;68.90;;;;;;6207252;28;88789;-61
2021/12/11 14:13:44;;;;;;;3.08;2.10;;;22.60;68.90;;;;;;6200854;28;89071;-61
2021/12/11 14:16:47;;;;;;;3.63;2.30;;;22.70;69.10;;;;;;6188658;28;89080;-61
2021/12/11 14:19:49;;;;;;;3.08;2.20;;;22.70;69.20;;;;;;6197800;28;89294;-61
2021/12/11 14:22:53;;;;;;;3.17;2.30;;;22.70;69.20;;;;;;6199980;28;87966;-61
2021/12/11 14:25:56;;;;;;;3.42;2.10;;;22.70;69.20;;;;;;6202947;28;87973;-61
2021/12/11 14:29:00;;;;;;;4.60;2.55;;;22.70;69.30;;;;;;6205452;28;88346;-61
2021/12/11 14:32:02;;;;;;;3.50;2.08;;;22.70;69.30;;;;;;6208280;28;88205;-61
2021/12/11 14:35:05;;;;;;;3.92;2.60;;;22.70;69.30;;;;;;6206262;28;89234;-61
2021/12/11 14:38:11;;;;;;;3.20;2.30;;;22.70;69.40;;;;;;6204503;28;90048;-61
2021/12/11 14:41:15;;;;;;;3.90;2.47;;;22.70;69.40;;;;;;6192333;28;89125;-61
2021/12/11 14:44:21;;;;;;;3.78;2.55;;;22.60;69.40;;;;;;6197286;28;89126;-61
2021/12/11 14:47:23;;;;;;;3.83;2.28;;;22.70;69.60;;;;;;6199050;28;89649;-61
2021/12/11 14:50:29;;;;;;;3.97;2.50;;;22.60;69.50;;;;;;6200357;28;89109;-61
2021/12/11 14:53:36;;;;;;;3.38;2.50;;;22.70;69.60;;;;;;6204227;28;87953;-61
2021/12/11 14:56:42;;;;;;;2.83;2.40;;;22.70;69.70;;;;;;6201196;28;88993;-61
2021/12/11 14:59:47;;;;;;;3.72;2.50;;;22.60;69.80;;;;;;6200650;28;87200;-61
2021/12/11 15:02:51;;;;;;;2.90;2.22;;;22.70;69.80;;;;;;6205591;28;89197;-61
2021/12/11 15:05:53;;;;;;;4.65;2.53;;;22.60;69.90;;;;;;6205379;28;89823;-61
2021/12/11 15:08:56;;;;;;;5.13;2.78;;;22.70;70.30;;;;;;6206201;28;90047;-61
2021/12/11 15:12:01;;;;;;;4.20;2.72;;;22.70;70.40;;;;;;6195669;28;89069;-61
2021/12/11 15:15:05;;;;;;;4.10;2.63;;;22.60;70.30;;;;;;6199593;28;89080;-61
2021/12/11 15:18:07;;;;;;;4.35;2.80;;;22.60;70.30;;;;;;6190057;28;89452;-61
2021/12/11 15:21:13;;;;;;;3.30;2.60;;;22.70;70.40;;;;;;6192948;28;89102;-61
2021/12/11 15:24:17;;;;;;;4.95;2.97;;;22.60;70.50;;;;;;6197137;28;89463;-61
2021/12/11 15:27:25;;;;;;;5.60;2.80;;;22.70;70.60;;;;;;6197822;28;89584;-61
2021/12/11 15:30:31;;;;;;;5.93;3.25;;;22.70;70.70;;;;;;6192520;28;89139;-61
2021/12/11 15:33:34;;;;;;;5.15;3.53;;;22.70;70.80;;;;;;6196251;28;89099;-61
2021/12/11 15:36:39;;;;;;;4.65;3.40;;;22.70;71.00;;;;;;6188780;28;88001;-61
2021/12/11 15:39:45;;;;;;;7.13;3.70;;;22.70;71.00;;;;;;6194934;28;90089;-61
2021/12/11 15:42:50;;;;;;;5.82;3.40;;;22.70;71.10;;;;;;6202666;28;89136;-61
2021/12/11 15:45:55;;;;;;;5.53;3.72;;;22.70;71.30;;;;;;6200533;28;88438;-61
2021/12/11 15:48:58;;;;;;;7.20;4.07;;;22.70;71.60;;;;;;6196678;28;88338;-61
2021/12/11 15:52:01;;;;;;;5.57;4.15;;;22.70;71.80;;;;;;6197551;28;88064;-61
2021/12/11 15:55:07;;;;;;;7.00;4.82;;;22.70;72.50;;;;;;6199018;28;89117;-60
2021/12/11 15:58:10;;;;;;;9.38;4.75;;;22.80;72.90;;;;;;6201524;28;89298;-61
2021/12/11 16:01:16;;;;;;;7.78;4.78;;;22.80;73.30;;;;;;6202310;28;88369;-61
2021/12/11 16:04:23;;;;;;;7.38;4.60;;;22.80;73.50;;;;;;6195332;28;89542;-61
2021/12/11 16:07:25;;;;;;;7.78;5.13;;;22.80;73.60;;;;;;6197704;28;88206;-61
2021/12/11 16:10:29;;;;;;;8.27;5.00;;;22.80;73.70;;;;;;6196792;28;90008;-61